Time;durP1;ratioP1;P1;durP2;ratioP2;P2;SDS_P1;SDS_P2;PMS_P1;PMS_P2;Temp;Humidity;BMP_temperature;BMP_pressure;BME280_temperature;BME280_humidity;BME280_pressure;Samples;Min_cycle;Max_cycle;Signal;HPM_P1;HPM_P2
2022/05/20 00:02:30;;;;;;;2.97;2.67;;;;;;;20.11;62.00;97220.03;10455012;28;20422;-19
2022/05/20 00:07:30;;;;;;;4.13;3.00;;;;;;;19.84;61.65;97208.06;10455327;28;20629;-20
2022/05/20 00:12:30;;;;;;;4.43;2.70;;;;;;;19.94;61.70;97216.56;10454358;28;20037;-21
2022/05/20 00:17:31;;;;;;;2.87;2.60;;;;;;;19.72;61.32;97210.59;10454251;28;20291;-21
2022/05/20 00:22:31;;;;;;;3.43;3.03;;;;;;;19.59;62.27;97213.91;10454180;28;20041;-21
2022/05/20 00:27:32;;;;;;;3.17;2.22;;;;;;;19.56;62.35;97205.44;10453416;28;20584;-21
2022/05/20 00:32:32;;;;;;;5.65;2.90;;;;;;;19.50;62.56;97202.91;10491043;28;20074;-20
2022/05/20 00:37:33;;;;;;;3.77;3.30;;;;;;;19.63;62.54;97207.16;10457319;28;20037;-20
2022/05/20 00:42:34;;;;;;;4.53;3.20;;;;;;;19.53;62.45;97202.91;10452713;28;20330;-20
2022/05/20 00:47:34;;;;;;;4.05;2.88;;;;;;;19.63;62.28;97195.31;10457133;28;20029;-21
2022/05/20 00:52:38;;;;;;;4.35;3.03;;;;;;;19.88;62.23;97186.06;10493616;28;20163;-20
2022/05/20 00:57:43;;;;;;;5.00;3.30;;;;;;;19.71;61.75;97185.16;10459434;28;20107;-20
2022/05/20 01:02:47;;;;;;;2.83;2.53;;;;;;;19.72;61.89;97179.25;10452702;28;20025;-21
2022/05/20 01:07:48;;;;;;;3.78;2.67;;;;;;;19.66;61.78;97176.72;10453235;28;20032;-19
2022/05/20 01:12:51;;;;;;;3.60;3.15;;;;;;;19.70;61.83;97170.78;10451973;28;20036;-20
2022/05/20 01:17:54;;;;;;;2.95;2.65;;;;;;;19.67;61.73;97178.41;10451372;28;20165;-20
2022/05/20 01:23:08;;;;;;;3.47;2.83;;;;;;;19.54;62.12;97163.94;10450636;28;20135;-20
2022/05/20 01:28:10;;;;;;;3.75;2.90;;;;;;;19.46;62.50;97161.41;10451700;28;20098;-20
2022/05/20 01:33:11;;;;;;;3.35;3.05;;;;;;;19.55;62.29;97152.94;10490634;28;20027;-20
2022/05/20 01:38:11;;;;;;;3.58;2.90;;;;;;;19.54;62.21;97154.66;10492600;28;20051;-20
2022/05/20 01:43:21;;;;;;;3.55;3.08;;;;;;;19.73;62.08;97148.75;10453856;28;20512;-20
2022/05/20 01:48:21;;;;;;;6.15;2.72;;;;;;;19.95;61.86;97147.09;10466410;28;20490;-20
2022/05/20 01:53:46;;;;;;;3.97;2.90;;;;;;;19.87;61.77;97149.66;10490979;28;20028;-20
2022/05/20 01:59:04;;;;;;;6.05;2.67;;;;;;;19.71;61.51;97153.00;10451363;28;20507;-20
2022/05/20 02:04:11;;;;;;;5.13;3.08;;;;;;;19.86;61.74;97142.00;10473372;28;20032;-21
2022/05/20 02:09:42;;;;;;;2.63;2.42;;;;;;;20.23;64.36;97143.75;10485052;28;20514;-20
2022/05/20 02:14:55;;;;;;;2.85;2.53;;;;;;;20.13;62.93;97147.13;10449637;28;20139;-21
2022/05/20 02:20:08;;;;;;;2.97;2.55;;;;;;;20.42;64.07;97117.47;10474810;28;20109;-19
2022/05/20 02:25:14;;;;;;;4.57;3.00;;;;;;;20.61;63.33;97136.09;10477183;28;20048;-21
2022/05/20 02:30:18;;;;;;;4.50;3.08;;;;;;;20.66;63.05;97123.34;10467957;28;20479;-20
2022/05/20 02:35:18;;;;;;;5.13;3.10;;;;;;;20.71;62.47;97122.50;10457772;28;20040;-20
2022/05/20 02:40:20;;;;;;;3.67;2.53;;;;;;;20.47;61.32;97125.06;10449981;28;20419;-20
2022/05/20 02:45:20;;;;;;;9.80;3.88;;;;;;;20.42;61.94;97126.81;10448919;28;20078;-20
2022/05/20 02:50:21;;;;;;;3.27;2.97;;;;;;;20.17;61.83;97120.88;10478671;28;20090;-20
2022/05/20 02:55:21;;;;;;;4.07;3.00;;;;;;;20.05;62.18;97118.31;10474605;28;20291;-19
2022/05/20 03:05:42;;;;;;;2.65;2.45;;;;;;;20.01;61.95;97114.06;10456034;28;20040;-19
2022/05/20 03:10:42;;;;;;;4.00;2.63;;;;;;;19.76;61.61;97112.34;10456739;28;20487;-21
2022/05/20 03:15:44;;;;;;;3.97;3.13;;;;;;;19.57;62.18;97115.69;10456283;28;20037;-19
2022/05/20 03:20:44;;;;;;;5.57;3.17;;;;;;;19.53;62.63;97114.00;10456922;28;20132;-21
2022/05/20 03:25:45;;;;;;;3.00;2.70;;;;;;;19.59;62.23;97119.94;10455934;28;20442;-21
2022/05/20 03:30:45;;;;;;;4.32;2.65;;;;;;;19.62;62.21;97119.97;10478077;28;20036;-20
2022/05/20 03:35:46;;;;;;;3.80;2.63;;;;;;;19.71;61.77;97119.97;10467076;28;20032;-20
2022/05/20 03:40:47;;;;;;;3.90;3.15;;;;;;;19.67;61.94;97125.88;10465946;28;20064;-21
2022/05/20 03:45:47;;;;;;;6.13;3.50;;;;;;;19.50;62.24;97126.72;10459213;28;20116;-20
2022/05/20 03:50:48;;;;;;;5.85;3.95;;;;;;;19.41;62.83;97121.63;10470459;28;20498;-20
2022/05/20 03:55:49;;;;;;;4.97;3.67;;;;;;;19.41;63.00;97124.97;10494536;28;20054;-21
2022/05/20 04:06:08;;;;;;;9.07;4.03;;;;;;;19.34;62.83;97115.66;10462538;28;20040;-20
2022/05/20 04:11:11;;;;;;;5.73;3.67;;;;;;;19.37;62.84;97119.88;10474277;28;20093;-20
2022/05/20 04:16:14;;;;;;;4.18;3.45;;;;;;;19.38;62.84;97121.56;10495217;28;20032;-22
2022/05/20 04:21:15;;;;;;;4.57;3.38;;;;;;;19.46;62.51;97114.84;10465000;28;20047;-21
2022/05/20 04:26:16;;;;;;;4.90;3.53;;;;;;;19.69;62.05;97108.94;10472463;28;20036;-19
2022/05/20 04:31:16;;;;;;;5.07;3.53;;;;;;;19.56;62.32;97116.53;10485909;28;20032;-20
2022/05/20 04:36:17;;;;;;;4.37;3.73;;;;;;;19.51;62.41;97118.25;10494595;28;20406;-20
2022/05/20 04:46:59;;;;;;;5.03;3.65;;;;;;;19.49;62.51;97120.78;10414696;28;20059;-20
2022/05/20 04:52:02;;;;;;;4.97;3.75;;;;;;;19.66;61.96;97114.03;10452117;28;20602;-20
2022/05/20 04:57:03;;;;;;;7.65;4.10;;;;;;;19.74;61.78;97108.94;10452097;28;20510;-22
2022/05/20 05:02:03;;;;;;;6.18;3.95;;;;;;;19.78;61.94;97103.03;10452619;28;20032;-20
2022/05/20 05:07:09;;;;;;;3.95;3.38;;;;;;;19.71;61.69;97112.34;10452272;28;20032;-21
2022/05/20 05:12:11;;;;;;;5.45;3.90;;;;;;;19.95;61.32;97116.59;10451926;28;20112;-21
2022/05/20 05:17:13;;;;;;;4.65;2.90;;;;;;;20.00;61.04;97107.31;10451961;28;20363;-20
2022/05/20 05:22:13;;;;;;;5.97;3.53;;;;;;;19.92;60.96;97124.22;10451293;28;20032;-20
2022/05/20 05:27:14;;;;;;;3.90;3.50;;;;;;;19.81;61.27;97123.34;10451078;28;20538;-20
2022/05/20 05:32:14;;;;;;;3.80;3.27;;;;;;;19.79;61.36;97127.59;10475532;28;20289;-19
2022/05/20 05:37:15;;;;;;;5.27;3.20;;;;;;;19.93;61.55;97118.31;10450405;28;20036;-20
2022/05/20 05:42:15;;;;;;;12.98;3.90;;;;;;;20.10;62.04;97116.66;10450675;28;20045;-23
2022/05/20 05:47:15;;;;;;;13.67;4.93;;;;;;;20.20;61.87;97123.41;10450404;28;20040;-21
2022/05/20 05:52:16;;;;;;;6.83;3.40;;;;;;;20.21;62.65;97120.03;10449960;28;20029;-20
2022/05/20 05:57:16;;;;;;;10.30;4.10;;;;;;;20.26;61.92;97119.16;10450003;28;20295;-21
2022/05/20 06:02:17;;;;;;;6.78;3.50;;;;;;;20.09;61.69;97133.59;10450687;28;20283;-20
2022/05/20 06:07:18;;;;;;;5.30;3.30;;;;;;;20.31;60.54;97125.09;10450683;28;20036;-20
2022/05/20 06:12:18;;;;;;;4.00;3.15;;;;;;;20.24;61.00;97127.63;10480775;28;20039;-19
2022/05/20 06:17:18;;;;;;;5.27;3.43;;;;;;;20.11;60.82;97134.41;10490396;28;20039;-21
2022/05/20 06:22:19;;;;;;;9.30;5.28;;;;;;;20.19;61.40;97136.97;10450671;28;20128;-19
2022/05/20 06:27:20;;;;;;;7.93;3.83;;;;;;;20.13;61.36;97127.66;10481370;28;20043;-21
2022/05/20 06:32:20;;;;;;;18.77;6.65;;;;;;;20.28;63.60;97136.97;10473568;28;20028;-21
2022/05/20 06:42:44;;;;;;;8.50;4.68;;;;;;;20.40;63.28;97125.09;10462075;28;20773;-20
2022/05/20 06:47:44;;;;;;;8.77;4.47;;;;;;;20.42;62.66;97122.56;10466156;28;20032;-19
2022/05/20 06:52:44;;;;;;;8.40;4.80;;;;;;;20.57;63.47;97120.84;10498362;28;20029;-21
2022/05/20 06:57:45;;;;;;;10.83;3.73;;;;;;;20.68;63.06;97112.34;10463207;28;20032;-20
2022/05/20 07:02:45;;;;;;;5.65;3.25;;;;;;;20.76;62.60;97110.63;10457018;28;20037;-20
2022/05/20 07:07:46;;;;;;;6.63;3.87;;;;;;;20.68;62.77;97109.78;10467112;28;20043;-20
2022/05/20 07:12:46;;;;;;;7.40;4.63;;;;;;;20.78;63.78;97108.91;10490144;28;20036;-20
2022/05/20 07:17:47;;;;;;;10.73;4.27;;;;;;;20.82;63.51;97109.75;10485363;28;20041;-20
2022/05/20 07:22:48;;;;;;;4.93;3.67;;;;;;;20.86;63.67;97099.59;10485512;28;20047;-20
2022/05/20 07:27:48;;;;;;;7.17;3.70;;;;;;;20.89;63.90;97089.38;10486288;28;20427;-20
2022/05/20 07:32:48;;;;;;;7.93;4.53;;;;;;;20.92;64.47;97089.38;10493480;28;20287;-20
2022/05/20 07:37:50;;;;;;;6.20;4.17;;;;;;;20.94;64.55;97092.75;10498430;28;20035;-20
2022/05/20 07:42:51;;;;;;;6.50;4.47;;;;;;;20.94;64.21;97087.69;10493355;28;20076;-21
2022/05/20 07:47:51;;;;;;;5.07;4.23;;;;;;;20.86;63.79;97089.41;10485853;28;20223;-19
2022/05/20 07:58:18;;;;;;;5.60;3.83;;;;;;;20.95;64.68;97089.38;10477092;28;20056;-19
2022/05/20 08:04:52;;;;;;;5.25;4.07;;;;;;;20.76;63.50;97095.34;10488575;28;20025;-20
2022/05/20 08:08:40;;;;;;;5.65;3.72;;;;;;;20.42;63.09;97092.03;10488706;28;20131;-20
2022/05/20 08:13:40;;;;;;;4.05;3.30;;;;;;;20.27;62.14;97097.16;10493529;28;20546;-20
2022/05/20 08:18:40;;;;;;;3.72;3.08;;;;;;;20.06;63.17;97089.50;10496141;28;20032;-21
2022/05/20 08:23:44;;;;;;;4.37;3.03;;;;;;;19.94;62.55;97089.50;10491492;28;20114;-21
2022/05/20 08:28:46;;;;;;;4.78;3.30;;;;;;;19.86;62.10;97086.09;10493454;28;20044;-20
2022/05/20 08:33:47;;;;;;;5.07;3.50;;;;;;;20.38;63.65;97103.06;10471134;28;20563;-19
2022/05/20 08:38:47;;;;;;;10.35;3.63;;;;;;;20.46;63.64;97095.41;10467777;28;20155;-19
2022/05/20 08:43:48;;;;;;;8.55;3.53;;;;;;;20.65;62.65;97098.78;10462985;28;20097;-19
2022/05/20 08:48:56;;;;;;;5.55;3.40;;;;;;;20.68;62.52;97084.34;10493142;28;20523;-21
2022/05/20 08:53:56;;;;;;;5.43;4.22;;;;;;;20.41;61.61;97093.72;10489733;28;20295;-19
2022/05/20 08:59:03;;;;;;;3.40;2.90;;;;;;;20.26;61.64;97080.19;10469544;28;20077;-20
2022/05/20 09:04:09;;;;;;;3.97;3.10;;;;;;;20.14;62.27;97087.81;10473320;28;20295;-20
2022/05/20 09:09:14;;;;;;;3.67;2.80;;;;;;;20.21;61.39;97074.25;10452267;28;20037;-20
2022/05/20 09:19:38;;;;;;;3.45;2.47;;;;;;;20.05;61.61;97057.31;10464007;28;20127;-20
2022/05/20 09:24:42;;;;;;;6.95;3.70;;;;;;;20.33;62.01;97064.09;10450605;28;20415;-19
2022/05/20 09:29:54;;;;;;;3.40;2.78;;;;;;;20.12;61.52;97059.00;10464299;28;20025;-19
2022/05/20 09:35:02;;;;;;;4.40;2.92;;;;;;;20.36;61.35;97058.97;10456279;28;20040;-19
2022/05/20 09:40:31;;;;;;;4.57;2.78;;;;;;;20.42;60.46;97050.50;10450752;28;20125;-20
2022/05/20 09:45:46;;;;;;;6.45;3.17;;;;;;;20.42;61.29;97045.41;10450482;28;20033;-19
2022/05/20 09:51:04;;;;;;;3.78;2.85;;;;;;;20.34;60.97;97047.97;10482148;28;20111;-19
2022/05/20 09:56:18;;;;;;;3.42;2.70;;;;;;;20.34;61.25;97032.72;10469122;28;20029;-19
2022/05/20 10:01:20;;;;;;;5.30;3.03;;;;;;;20.41;60.78;97030.16;10450422;28;20040;-20
2022/05/20 10:06:32;;;;;;;4.70;3.17;;;;;;;20.34;62.22;97025.09;10459363;28;20041;-20
2022/05/20 10:11:43;;;;;;;4.68;4.28;;;;;;;20.42;62.81;97003.03;10450316;28;20029;-19
2022/05/20 10:16:56;;;;;;;10.20;4.25;;;;;;;20.66;62.53;96998.69;10458175;28;20039;-20
2022/05/20 10:22:24;;;;;;;14.35;3.63;;;;;;;20.37;62.65;96986.94;10482421;28;20122;-20
2022/05/20 10:27:40;;;;;;;39.58;10.45;;;;;;;20.77;62.28;96972.34;10481393;28;20107;-20
2022/05/20 10:32:49;;;;;;;10.60;3.95;;;;;;;20.99;61.53;96963.75;10461429;28;20028;-20
2022/05/20 10:38:34;;;;;;;11.05;3.63;;;;;;;20.96;61.29;96961.22;10491036;28;20119;-21
2022/05/20 10:49:31;;;;;;;5.43;2.83;;;;;;;21.20;59.80;96956.00;10448612;28;20627;-22
2022/05/20 10:54:46;;;;;;;8.20;3.60;;;;;;;21.12;60.03;96939.91;10448194;28;20530;-21
2022/05/20 11:00:06;;;;;;;13.00;4.18;;;;;;;21.12;60.69;96929.72;10448993;28;20102;-21
2022/05/20 11:05:41;;;;;;;13.80;4.13;;;;;;;21.14;60.37;96915.28;10448106;28;20041;-21
2022/05/20 11:10:53;;;;;;;8.82;3.00;;;;;;;21.19;59.80;96918.66;10448246;28;20040;-21
2022/05/20 11:16:23;;;;;;;7.65;2.55;;;;;;;21.17;59.51;96907.63;10459012;28;20044;-22
2022/05/20 11:21:51;;;;;;;6.07;3.25;;;;;;;21.22;59.09;96894.88;10480501;28;20045;-22
2022/05/20 11:27:00;;;;;;;5.72;3.10;;;;;;;21.25;58.78;96895.69;10455866;28;20032;-21
2022/05/20 11:32:11;;;;;;;6.57;2.70;;;;;;;21.32;58.19;96884.56;10487756;28;20029;-23
2022/05/20 11:37:20;;;;;;;5.53;2.92;;;;;;;21.27;58.43;96860.88;10495426;28;20636;-21
2022/05/20 11:42:39;;;;;;;4.75;2.75;;;;;;;21.32;57.81;96850.63;10463498;28;20114;-22
2022/05/20 11:47:51;;;;;;;5.30;3.17;;;;;;;21.37;57.85;96828.50;10487872;28;20036;-21
2022/05/20 11:53:22;;;;;;;7.90;3.63;;;;;;;21.29;58.36;96815.03;10497470;28;20033;-22
2022/05/20 11:58:39;;;;;;;6.85;2.92;;;;;;;21.26;58.57;96804.84;10454860;28;20119;-21
2022/05/20 12:09:02;;;;;;;6.32;3.00;;;;;;;21.39;58.37;96776.69;10491599;28;20414;-21
2022/05/20 12:14:10;;;;;;;7.07;3.10;;;;;;;21.36;58.66;96764.00;10454408;28;20339;-20
2022/05/20 12:24:43;;;;;;;8.82;3.00;;;;;;;21.18;59.02;96764.19;10452084;28;20074;-21
2022/05/20 12:29:55;;;;;;;6.53;2.95;;;;;;;21.17;59.20;96749.78;10466487;28;20025;-21
2022/05/20 12:35:26;;;;;;;15.02;4.32;;;;;;;20.69;60.58;96749.31;10461602;28;20064;-21
2022/05/20 12:40:27;;;;;;;7.07;3.38;;;;;;;21.05;59.96;96744.78;10452592;28;20075;-22
2022/05/20 12:45:32;;;;;;;8.07;3.17;;;;;;;21.11;60.23;96733.69;10454034;28;20094;-21
2022/05/20 12:50:33;;;;;;;4.60;3.08;;;;;;;20.88;60.55;96718.66;10453420;28;20037;-22
2022/05/20 12:55:43;;;;;;;7.07;3.05;;;;;;;20.79;60.79;96715.34;10452413;28;20499;-22
2022/05/20 13:00:54;;;;;;;6.35;3.20;;;;;;;20.89;60.91;96702.53;10453125;28;20049;-21
2022/05/20 13:05:58;;;;;;;4.97;3.08;;;;;;;21.06;60.06;96689.63;10454992;28;20103;-21
2022/05/20 13:11:07;;;;;;;7.85;3.15;;;;;;;21.03;60.16;96695.59;10472847;28;20048;-19
2022/05/20 13:16:12;;;;;;;9.13;4.25;;;;;;;20.73;60.44;96678.03;10451113;28;20041;-22
2022/05/20 13:21:19;;;;;;;7.72;3.13;;;;;;;20.88;60.27;96665.22;10452311;28;20037;-21
2022/05/20 13:26:24;;;;;;;5.13;3.95;;;;;;;20.80;60.61;96655.94;10451245;28;20033;-21
2022/05/20 13:31:25;;;;;;;7.78;3.45;;;;;;;20.59;60.62;96657.00;10478940;28;20493;-22
2022/05/20 13:36:34;;;;;;;5.85;2.85;;;;;;;20.59;60.44;96651.91;10465025;28;20055;-20
2022/05/20 13:41:34;;;;;;;6.45;2.55;;;;;;;20.63;61.03;96648.47;10448155;28;20040;-22
2022/05/20 13:52:01;;;;;;;3.45;2.85;;;;;;;20.58;61.15;96665.50;10492133;28;20111;-21
2022/05/20 13:57:04;;;;;;;5.47;3.63;;;;;;;20.80;60.18;96666.94;10461755;28;20116;-22
2022/05/20 14:02:10;;;;;;;4.68;3.58;;;;;;;20.77;60.29;96667.00;10449652;28;20040;-22
2022/05/20 14:07:16;;;;;;;4.50;3.08;;;;;;;20.40;60.17;96675.78;10449929;28;20090;-20
2022/05/20 14:12:25;;;;;;;6.00;3.63;;;;;;;20.28;60.16;96681.84;10480409;28;20043;-20
2022/05/20 14:17:28;;;;;;;3.95;2.70;;;;;;;20.30;59.94;96692.84;10484805;28;20488;-22
2022/05/20 14:22:31;;;;;;;5.32;3.35;;;;;;;20.04;60.91;96699.78;10449750;28;20265;-21
2022/05/20 14:27:43;;;;;;;6.60;3.15;;;;;;;20.17;60.64;96711.59;10449475;28;20036;-21
2022/05/20 14:32:49;;;;;;;6.18;3.22;;;;;;;20.15;60.72;96713.28;10488081;28;20028;-22
2022/05/20 14:37:50;;;;;;;;;;;;;;;20.53;62.25;96722.31;10456307;28;20033;-22
2022/05/20 14:43:03;;;;;;;5.83;2.93;;;;;;;20.15;61.28;96714.13;10448941;28;19924;-21
2022/05/20 14:48:10;;;;;;;4.82;3.70;;;;;;;20.21;61.40;96731.03;10463536;28;20043;-23
2022/05/20 14:53:35;;;;;;;5.15;2.85;;;;;;;20.21;61.76;96728.50;10491718;28;20509;-20
2022/05/20 14:58:36;;;;;;;8.18;3.45;;;;;;;20.21;61.59;96728.50;10458251;28;20106;-21
2022/05/20 15:03:40;;;;;;;6.38;3.08;;;;;;;20.32;62.39;96732.66;10457170;28;20086;-20
2022/05/20 15:08:41;;;;;;;8.15;3.45;;;;;;;20.29;61.33;96747.09;10457441;28;20029;-21
2022/05/20 15:13:42;;;;;;;6.53;2.87;;;;;;;20.33;61.19;96748.78;10497690;28;20043;-20
2022/05/20 15:18:42;;;;;;;4.57;3.20;;;;;;;20.10;61.69;96771.78;10480982;28;20677;-20
2022/05/20 15:23:48;;;;;;;6.50;3.50;;;;;;;20.12;61.50;96764.16;10455211;28;20044;-22
2022/05/20 15:28:48;;;;;;;8.57;3.00;;;;;;;20.11;61.34;96777.72;10462254;28;20044;-21
2022/05/20 15:39:12;;;;;;;5.15;2.97;;;;;;;20.28;61.00;96783.53;10456049;28;20068;-21
2022/05/20 15:44:12;;;;;;;6.72;3.33;;;;;;;20.20;60.69;96793.78;10455466;28;20036;-20
2022/05/20 15:49:12;;;;;;;8.00;3.40;;;;;;;20.08;60.85;96793.00;10494932;28;20047;-22
2022/05/20 15:54:13;;;;;;;6.73;2.67;;;;;;;19.89;60.66;96787.13;10477468;28;20491;-22
2022/05/20 15:59:15;;;;;;;5.63;3.00;;;;;;;19.97;59.80;96803.16;10455150;28;20119;-21
2022/05/20 16:04:15;;;;;;;11.95;3.50;;;;;;;20.03;58.67;96776.88;10450891;28;20174;-23
2022/05/20 16:09:18;;;;;;;9.93;2.70;;;;;;;20.16;58.93;96746.31;10456784;28;20105;-21
2022/05/20 16:14:19;;;;;;;7.82;3.53;;;;;;;19.99;58.52;96763.34;10467350;28;20283;-20
2022/05/20 16:19:19;;;;;;;8.82;4.32;;;;;;;20.08;58.84;96765.03;10458868;28;20024;-21
2022/05/20 16:24:20;;;;;;;6.63;3.13;;;;;;;20.17;59.40;96701.44;10471697;28;20512;-22
2022/05/20 16:29:20;;;;;;;5.97;2.80;;;;;;;20.48;58.95;96657.94;10476377;28;20036;-21
2022/05/20 16:34:21;;;;;;;8.13;2.95;;;;;;;20.62;59.01;96674.75;10478383;28;20028;-19
2022/05/20 16:39:21;;;;;;;4.27;2.40;;;;;;;20.44;59.09;96702.91;10453885;28;20031;-21
2022/05/20 16:44:22;;;;;;;9.27;2.70;;;;;;;20.31;59.04;96725.03;10453397;28;20037;-22
2022/05/20 16:49:26;;;;;;;7.30;2.60;;;;;;;20.14;59.46;96747.19;10474608;28;20292;-22
2022/05/20 16:54:31;;;;;;;6.07;2.38;;;;;;;20.17;58.97;96737.03;10484698;28;20039;-21
2022/05/20 17:04:50;;;;;;;5.13;2.70;;;;;;;20.19;58.90;96753.94;10451905;28;20108;-20
2022/05/20 17:09:52;;;;;;;8.10;2.75;;;;;;;20.04;59.07;96745.53;10462709;28;20123;-20
2022/05/20 17:14:53;;;;;;;5.18;3.28;;;;;;;20.20;58.79;96758.19;10493260;28;20487;-20
2022/05/20 17:19:53;;;;;;;7.72;3.50;;;;;;;20.48;58.04;96752.88;10480000;28;20413;-21
2022/05/20 17:24:55;;;;;;;12.43;3.20;;;;;;;20.52;58.69;96759.63;10464573;28;20033;-21
2022/05/20 17:29:55;;;;;;;7.35;2.83;;;;;;;20.35;58.99;96770.78;10467132;28;20036;-20
2022/05/20 17:34:56;;;;;;;10.07;3.47;;;;;;;20.22;59.34;96765.78;10462456;28;20269;-21
2022/05/20 17:39:56;;;;;;;10.55;2.88;;;;;;;20.15;59.58;96754.81;10462207;28;20849;-20
2022/05/20 17:44:56;;;;;;;3.85;2.72;;;;;;;20.23;59.40;96768.31;10491704;28;20032;-20
2022/05/20 17:49:58;;;;;;;4.00;2.20;;;;;;;20.07;59.76;96755.69;10469310;28;20033;-20
2022/05/20 17:54:58;;;;;;;5.15;3.60;;;;;;;20.27;59.43;96725.94;10457329;28;20365;-22
2022/05/20 17:59:59;;;;;;;6.95;2.80;;;;;;;20.49;60.38;96731.69;10460634;28;20036;-21
2022/05/20 18:05:00;;;;;;;6.28;3.25;;;;;;;20.63;58.83;96714.59;10449884;28;20036;-21
2022/05/20 18:10:00;;;;;;;8.15;2.53;;;;;;;20.36;58.70;96721.59;10445877;28;20036;-20
2022/05/20 18:15:00;;;;;;;5.63;2.30;;;;;;;20.18;59.18;96710.75;10487397;28;20302;-20
2022/05/20 18:20:03;;;;;;;7.20;2.50;;;;;;;20.17;58.68;96709.06;10485917;28;20150;-21
2022/05/20 18:25:05;;;;;;;5.60;2.60;;;;;;;20.18;59.20;96703.13;10473468;28;20029;-21
2022/05/20 18:30:06;;;;;;;4.45;2.05;;;;;;;20.27;58.94;96721.66;10456973;28;20035;-21
2022/05/20 18:40:26;;;;;;;7.07;2.70;;;;;;;20.04;58.66;96748.06;10445801;28;20052;-21
2022/05/20 18:45:27;;;;;;;7.72;2.42;;;;;;;20.08;58.61;96750.59;10461732;28;20066;-20
2022/05/20 18:50:28;;;;;;;7.90;2.60;;;;;;;20.42;58.47;96758.88;10464884;28;20091;-21
2022/05/20 18:55:29;;;;;;;6.65;2.85;;;;;;;20.37;58.85;96770.78;10453955;28;20037;-21
2022/05/20 19:00:34;;;;;;;5.35;2.58;;;;;;;20.46;58.61;96782.56;10481087;28;20044;-20
2022/05/20 19:05:34;;;;;;;7.10;2.60;;;;;;;20.18;58.91;96787.00;10447202;28;20045;-23
2022/05/20 19:10:35;;;;;;;6.97;2.30;;;;;;;20.09;58.74;96797.22;10446373;28;20079;-21
2022/05/20 19:15:36;;;;;;;7.43;2.53;;;;;;;20.08;58.27;96773.47;10446356;28;20061;-21
2022/05/20 19:20:37;;;;;;;4.50;2.53;;;;;;;20.07;58.60;96773.47;10447255;28;20029;-21
2022/05/20 19:25:38;;;;;;;8.73;2.55;;;;;;;20.02;58.73;96808.22;10446641;28;20052;-21
2022/05/20 19:30:40;;;;;;;7.78;2.88;;;;;;;19.94;58.61;96831.13;10451024;28;20480;-20
2022/05/20 19:35:41;;;;;;;7.38;2.60;;;;;;;19.91;58.74;96838.75;10444311;28;20071;-20
2022/05/20 19:40:42;;;;;;;6.00;2.60;;;;;;;20.21;58.02;96850.53;10448697;28;20926;-20
2022/05/20 19:45:42;;;;;;;6.75;2.30;;;;;;;19.99;58.46;96856.50;10450657;28;20067;-20
2022/05/20 19:50:44;;;;;;;8.40;3.37;;;;;;;19.90;58.58;96874.34;10450858;28;20490;-20
2022/05/20 19:55:49;;;;;;;6.43;2.42;;;;;;;19.99;57.89;96874.31;10450959;28;20340;-21
2022/05/20 20:00:53;;;;;;;8.18;2.50;;;;;;;19.98;58.11;96887.88;10450773;28;20036;-21
2022/05/20 20:05:54;;;;;;;9.32;2.83;;;;;;;19.95;58.07;96901.44;10468504;28;20461;-20
2022/05/20 20:10:56;;;;;;;6.40;2.30;;;;;;;19.97;58.14;96911.59;10475297;28;20040;-21
2022/05/20 20:16:03;;;;;;;9.02;2.67;;;;;;;19.94;58.48;96916.69;10468190;28;20053;-20
2022/05/20 20:26:24;;;;;;;5.70;3.17;;;;;;;19.84;59.00;96915.84;10467970;28;20394;-21
2022/05/20 20:31:27;;;;;;;8.70;2.50;;;;;;;19.94;58.81;96926.84;10463710;28;20040;-21
2022/05/20 20:36:29;;;;;;;11.32;4.20;;;;;;;19.97;58.52;96922.63;10449704;28;20036;-21
2022/05/20 20:41:33;;;;;;;14.95;3.00;;;;;;;19.98;58.74;96924.31;10449322;28;20083;-20
2022/05/20 20:46:37;;;;;;;7.40;2.83;;;;;;;19.96;58.95;96933.63;10451558;28;20028;-21
2022/05/20 20:51:41;;;;;;;6.63;2.88;;;;;;;19.94;59.32;96940.38;10472811;28;20044;-20
2022/05/20 20:56:41;;;;;;;8.02;3.30;;;;;;;19.99;59.43;96963.25;10470491;28;20078;-21
2022/05/20 21:01:44;;;;;;;9.85;3.70;;;;;;;20.26;59.13;96986.13;10478151;28;20033;-20
2022/05/20 21:06:45;;;;;;;5.60;2.58;;;;;;;20.43;59.12;97025.91;10468932;28;20047;-21
2022/05/20 21:17:04;;;;;;;6.63;3.15;;;;;;;20.06;59.93;97059.00;10457319;28;20093;-21
2022/05/20 21:22:04;;;;;;;6.90;3.03;;;;;;;20.04;60.79;97058.13;10478994;28;20108;-21
2022/05/20 21:27:05;;;;;;;10.93;4.07;;;;;;;20.04;61.95;97065.78;10481382;28;20024;-20
2022/05/20 21:32:06;;;;;;;10.65;4.22;;;;;;;19.99;63.55;97082.69;10491246;28;20291;-21
2022/05/20 21:37:07;;;;;;;6.88;3.55;;;;;;;20.02;63.60;97082.72;10493246;28;20034;-20
2022/05/20 21:42:07;;;;;;;4.57;3.77;;;;;;;20.10;63.67;97088.69;10462776;28;20047;-20
2022/05/20 21:47:08;;;;;;;6.03;3.30;;;;;;;20.04;64.07;97127.66;10450897;28;20509;-20
2022/05/20 21:52:10;;;;;;;7.07;3.23;;;;;;;20.00;63.97;97132.72;10450903;28;20029;-20
2022/05/20 21:57:11;;;;;;;6.95;4.20;;;;;;;19.97;63.77;97140.31;10453367;28;20052;-21
2022/05/20 22:12:49;;;;;;;6.68;2.80;;;;;;;19.92;65.21;97177.59;10449829;28;20029;-21
2022/05/20 22:17:49;;;;;;;3.90;3.35;;;;;;;19.96;65.88;97169.13;10449357;28;20507;-21
2022/05/20 22:22:50;;;;;;;7.07;3.03;;;;;;;20.01;66.94;97162.38;10449476;28;20063;-21
2022/05/20 22:27:50;;;;;;;5.97;3.20;;;;;;;19.96;66.94;97166.59;10449724;28;20028;-21
2022/05/20 22:32:51;;;;;;;3.93;3.00;;;;;;;19.95;66.94;97154.72;10470975;28;20040;-20
2022/05/20 22:37:51;;;;;;;5.80;2.93;;;;;;;19.91;66.55;97155.59;10450189;28;20107;-20
2022/05/20 22:42:54;;;;;;;5.50;3.43;;;;;;;19.92;66.52;97193.69;10449074;28;20299;-21
2022/05/20 22:47:55;;;;;;;7.72;4.00;;;;;;;19.93;68.49;97179.28;10454215;28;20495;-20
2022/05/20 22:52:56;;;;;;;9.60;5.03;;;;;;;19.94;68.18;97196.25;10448519;28;20052;-20
2022/05/20 22:57:56;;;;;;;8.60;4.27;;;;;;;19.89;67.75;97187.75;10452645;28;20483;-20
2022/05/20 23:02:56;;;;;;;9.87;5.10;;;;;;;19.87;69.96;97189.44;10449357;28;20041;-21
2022/05/20 23:07:57;;;;;;;11.45;4.72;;;;;;;19.90;69.49;97195.38;10449021;28;20064;-21
2022/05/20 23:12:58;;;;;;;10.25;4.18;;;;;;;19.95;69.91;97203.00;10448841;28;20041;-22
2022/05/20 23:17:58;;;;;;;8.70;4.03;;;;;;;19.88;70.78;97206.38;10456972;28;20037;-21
2022/05/20 23:22:58;;;;;;;8.03;4.13;;;;;;;19.83;70.50;97216.53;10456268;28;20037;-21
2022/05/20 23:27:59;;;;;;;7.53;3.67;;;;;;;19.80;70.50;97228.38;10456232;28;20033;-21
2022/05/20 23:32:59;;;;;;;14.98;4.82;;;;;;;19.76;70.69;97230.06;10495905;28;20151;-21
2022/05/20 23:38:00;;;;;;;6.10;4.10;;;;;;;19.78;71.46;97225.00;10456093;28;20448;-23
2022/05/20 23:43:01;;;;;;;6.50;3.95;;;;;;;19.74;71.17;97233.44;10491314;28;20036;-21
2022/05/20 23:48:02;;;;;;;6.95;4.07;;;;;;;19.74;71.03;97218.19;10482858;28;20036;-21
2022/05/20 23:53:03;;;;;;;5.03;3.33;;;;;;;19.70;71.48;97226.66;10455556;28;20395;-22
2022/05/20 23:58:05;;;;;;;7.40;3.67;;;;;;;19.76;70.72;97247.00;10494596;28;20068;-22
